Altoona, IA (50009)

9:10 AM CDT on August 28, 2016 (GMT -0500)
Altoona, Iowa (NE) | | Change Station

Elev 938 ft 41.64 °N, 93.45 °W | Updated 2 seconds ago

Scattered Clouds
Scattered Clouds
76.3 °F
Feels Like 77 °F
N
0.9
Wind Variable Wind from NW
Gusts 2.5 mph

Today
High -- | Low -- °F
--% Chance of Precip.
Yesterday
High -- | Low -- °F
Precip. -- in
Pressure 30.12 in
Visibility 10.0 miles
Clouds Few 4500 ft
Few 13000 ft
Scattered Clouds 30000 ft
Heat Index 77 °F
Dew Point 70 °F
Humidity 82%
Rainfall 0.00 in
Snow Depth Not available.
6:36 AM 7:52 PM
Waning Crescent, 15% visible
METAR KDSM 281354Z 12005KT 10SM FEW045 FEW130 SCT300 24/21 A3014 RMK AO2 SLP198 T02390206
Pressure 30.12 in
Visibility 10.0 miles
Clouds Few 4500 ft
Few 13000 ft
Scattered Clouds 30000 ft
Heat Index 77 °F
Dew Point 70 °F
Humidity 82%
Rainfall 0.00 in
Snow Depth Not available.
6:36 AM 7:52 PM
Waning Crescent, 15% visible
METAR KDSM 281354Z 12005KT 10SM FEW045 FEW130 SCT300 24/21 A3014 RMK AO2 SLP198 T02390206

10-Day Weather Forecast

Almanac

Astronomy

Aug. 28, 2016 Rise Set
Actual Time
Civil Twilight
Nautical Twilight
Astronomical Twilight
Moon
Length of Visible Light
Length of Day
Tomorrow will be .
, % of the Moon is Illuminated

Today's Extremes

State Highs State Lows

Community

WunderPhotos

Upload Photos

1,935,569 photos uploaded!

WunderBlog® & News

Nearby

Air Quality

  Air Quality AQ Index Pollutant
Not available.

Snow Depth

Station Depth Elevation

Earthquake Activity

City Distance Mag. Time & Date
Minimum magnitude displayed is 2.5.

Coastal Water Temperatures

Place Temperature

Stations

Nearby Weather Stations

Station Location Temp. Windchill Dew Point Humidity Wind Precip. Elev Updated Type
                   

Watches & Warnings

There are currently no watches in effect.